Time;durP1;ratioP1;P1;durP2;ratioP2;P2;SDS_P1;SDS_P2;PMS_P1;PMS_P2;Temp;Humidity;BMP_temperature;BMP_pressure;BME280_temperature;BME280_humidity;BME280_pressure;Samples;Min_cycle;Max_cycle;Signal;HPM_P1;HPM_P2
2022/11/21 00:01:21;;;;;;;22.77;12.05;;;;;;;;;;4393665;32;68092;-63
2022/11/21 00:04:08;;;;;;;23.67;10.95;;;;;;;;;;4383094;32;60359;-62
2022/11/21 00:06:54;;;;;;;19.67;10.75;;;;;;;;;;4382711;32;69453;-64
2022/11/21 00:09:41;;;;;;;25.12;13.40;;;;;;;;;;4389301;32;69253;-64
2022/11/21 00:12:28;;;;;;;21.42;12.35;;;;;;;;;;4372161;32;67982;-63
2022/11/21 00:15:15;;;;;;;21.87;12.93;;;;;;;;;;4362122;32;59604;-63
2022/11/21 00:18:03;;;;;;;22.25;11.90;;;;;;;;;;4372647;32;70498;-64
2022/11/21 00:20:49;;;;;;;24.63;12.18;;;;;;;;;;4372454;32;68312;-64
2022/11/21 00:23:36;;;;;;;20.50;12.13;;;;;;;;;;4382925;32;67153;-64
2022/11/21 00:26:23;;;;;;;23.95;12.75;;;;;;;;;;4372487;32;70755;-63
2022/11/21 00:29:09;;;;;;;24.75;12.27;;;;;;;;;;4371890;32;66261;-65
2022/11/21 00:31:57;;;;;;;23.38;13.48;;;;;;;;;;4372565;32;67398;-63
2022/11/21 00:34:43;;;;;;;23.23;12.60;;;;;;;;;;4383386;32;59322;-64
2022/11/21 00:37:32;;;;;;;22.77;12.93;;;;;;;;;;4372202;32;70671;-64
2022/11/21 00:40:18;;;;;;;21.25;13.18;;;;;;;;;;4372442;32;64790;-64
2022/11/21 00:43:05;;;;;;;21.62;13.35;;;;;;;;;;4361499;32;68487;-64
2022/11/21 00:45:52;;;;;;;21.23;13.27;;;;;;;;;;4384429;32;59239;-64
2022/11/21 00:48:39;;;;;;;23.17;12.82;;;;;;;;;;4384257;32;69770;-64
2022/11/21 00:51:26;;;;;;;20.83;12.25;;;;;;;;;;4371689;32;69363;-64
2022/11/21 00:54:13;;;;;;;26.67;13.38;;;;;;;;;;4372230;32;67926;-64
2022/11/21 00:56:59;;;;;;;21.65;12.37;;;;;;;;;;4372034;32;71406;-63
2022/11/21 00:59:46;;;;;;;23.45;12.82;;;;;;;;;;4382619;32;65813;-64
2022/11/21 01:02:33;;;;;;;21.15;12.52;;;;;;;;;;4372224;32;66666;-64
2022/11/21 01:05:20;;;;;;;24.10;13.43;;;;;;;;;;4372356;32;67689;-64
2022/11/21 01:08:06;;;;;;;22.02;11.88;;;;;;;;;;4371484;32;72810;-65
2022/11/21 01:10:53;;;;;;;25.95;13.18;;;;;;;;;;4372133;32;64935;-63
2022/11/21 01:13:41;;;;;;;25.48;14.55;;;;;;;;;;4371396;32;67898;-63
2022/11/21 01:16:28;;;;;;;24.90;13.23;;;;;;;;;;4361303;32;60846;-63
2022/11/21 01:19:15;;;;;;;22.58;12.13;;;;;;;;;;4382404;32;70916;-65
2022/11/21 01:22:01;;;;;;;23.35;12.88;;;;;;;;;;4371154;32;69225;-64
2022/11/21 01:24:48;;;;;;;22.27;12.90;;;;;;;;;;4361342;32;66563;-65
2022/11/21 01:27:35;;;;;;;26.08;13.43;;;;;;;;;;4382751;32;60541;-64
2022/11/21 01:30:21;;;;;;;24.95;13.30;;;;;;;;;;4371661;32;69738;-64
2022/11/21 01:33:08;;;;;;;23.90;13.95;;;;;;;;;;4383671;32;68620;-64
2022/11/21 01:35:54;;;;;;;24.48;12.75;;;;;;;;;;4371721;32;66702;-65
2022/11/21 01:38:42;;;;;;;27.13;13.32;;;;;;;;;;4382168;32;71805;-64
2022/11/21 01:41:40;;;;;;;21.55;12.32;;;;;;;;;;4371779;32;65104;-64
2022/11/21 01:44:46;;;;;;;26.30;13.20;;;;;;;;;;4371090;32;67761;-64
2022/11/21 01:47:33;;;;;;;28.90;13.75;;;;;;;;;;4371760;32;60634;-64
2022/11/21 01:50:20;;;;;;;23.92;13.90;;;;;;;;;;4360478;32;71118;-63
2022/11/21 01:53:06;;;;;;;23.42;13.00;;;;;;;;;;4371663;32;64913;-63
2022/11/21 01:55:54;;;;;;;28.42;14.35;;;;;;;;;;4360852;32;68344;-63
2022/11/21 01:58:41;;;;;;;25.42;13.70;;;;;;;;;;4360713;32;59414;-64
2022/11/21 02:01:28;;;;;;;25.58;12.75;;;;;;;;;;4360465;32;71282;-63
2022/11/21 02:04:15;;;;;;;27.77;14.30;;;;;;;;;;4371340;32;68493;-64
2022/11/21 02:07:05;;;;;;;26.58;14.15;;;;;;;;;;4360175;32;68500;-64
2022/11/21 02:09:55;;;;;;;27.75;15.82;;;;;;;;;;4381930;32;70863;-64
2022/11/21 02:12:53;;;;;;;29.27;14.60;;;;;;;;;;4360270;32;66367;-63
2022/11/21 02:15:40;;;;;;;29.55;14.05;;;;;;;;;;4371368;32;67725;-63
2022/11/21 02:18:26;;;;;;;27.17;14.45;;;;;;;;;;4383222;32;66881;-64
2022/11/21 02:21:33;;;;;;;27.62;14.68;;;;;;;;;;4381692;32;71694;-64
2022/11/21 02:24:29;;;;;;;23.45;14.52;;;;;;;;;;4381774;32;66095;-63
2022/11/21 02:27:16;;;;;;;;;;;;;;;;;;4371623;32;67803;-63
2022/11/21 02:30:04;;;;;;;25.83;14.52;;;;;;;;;;4371563;32;58704;-64
2022/11/21 02:32:51;;;;;;;26.83;15.20;;;;;;;;;;4370759;32;70619;-64
2022/11/21 02:35:37;;;;;;;;;;;;;;;;;;4382047;32;69008;-63
2022/11/21 02:38:31;;;;;;;25.85;15.68;;;;;;;;;;4383481;32;67997;-64
2022/11/21 02:41:25;;;;;;;27.77;14.10;;;;;;;;;;4384020;32;71840;-64
2022/11/21 02:44:44;;;;;;;23.87;13.77;;;;;;;;;;4373000;32;70388;-64
2022/11/21 02:47:31;;;;;;;21.65;12.60;;;;;;;;;;4364599;32;68379;-67
2022/11/21 02:50:32;;;;;;;25.40;12.65;;;;;;;;;;4374465;32;67802;-63
2022/11/21 02:53:19;;;;;;;23.15;12.35;;;;;;;;;;4383101;32;71171;-64
2022/11/21 02:56:06;;;;;;;22.25;12.80;;;;;;;;;;4359781;32;66808;-64
2022/11/21 02:58:53;;;;;;;23.27;13.23;;;;;;;;;;4370320;32;67943;-64
2022/11/21 03:01:39;;;;;;;;;;;;;;;;;;4371584;32;59275;-63
2022/11/21 03:04:26;;;;;;;25.17;13.02;;;;;;;;;;4360030;32;70783;-64
2022/11/21 03:07:13;;;;;;;21.55;12.15;;;;;;;;;;4361225;32;69905;-64
2022/11/21 03:10:00;;;;;;;24.20;13.23;;;;;;;;;;4371758;32;67512;-63
2022/11/21 03:12:47;;;;;;;22.92;11.75;;;;;;;;;;4382591;32;59476;-64
2022/11/21 03:15:34;;;;;;;22.73;13.18;;;;;;;;;;4360020;32;70397;-64
2022/11/21 03:18:21;;;;;;;22.27;12.85;;;;;;;;;;4359831;32;68988;-63
2022/11/21 03:21:07;;;;;;;21.45;13.07;;;;;;;;;;4360302;32;67327;-63
2022/11/21 03:23:54;;;;;;;22.60;12.40;;;;;;;;;;4370731;32;71859;-62
2022/11/21 03:26:41;;;;;;;21.02;11.80;;;;;;;;;;4381751;32;65962;-64
2022/11/21 03:29:27;;;;;;;23.48;12.70;;;;;;;;;;4371014;32;66387;-63
2022/11/21 03:32:14;;;;;;;22.27;12.70;;;;;;;;;;4370241;32;59999;-62
2022/11/21 03:35:01;;;;;;;20.10;11.50;;;;;;;;;;4371893;32;70698;-64
2022/11/21 03:37:48;;;;;;;22.15;11.52;;;;;;;;;;4382605;32;65927;-63
2022/11/21 03:40:35;;;;;;;19.83;11.88;;;;;;;;;;4371599;32;67544;-64
2022/11/21 03:43:21;;;;;;;21.33;11.57;;;;;;;;;;4376339;32;59226;-64
2022/11/21 03:46:08;;;;;;;20.40;11.30;;;;;;;;;;4379690;32;69714;-65
2022/11/21 03:48:55;;;;;;;18.23;10.90;;;;;;;;;;4390005;32;69527;-64
2022/11/21 03:51:43;;;;;;;15.77;10.88;;;;;;;;;;4377434;32;66676;-64
2022/11/21 03:54:30;;;;;;;18.25;10.13;;;;;;;;;;4365935;32;71939;-64
2022/11/21 03:57:17;;;;;;;18.62;10.95;;;;;;;;;;4373247;32;69762;-64
2022/11/21 04:00:04;;;;;;;16.50;9.95;;;;;;;;;;4373305;32;69149;-63
2022/11/21 04:02:51;;;;;;;20.67;11.23;;;;;;;;;;4363403;32;67673;-63
2022/11/21 04:05:37;;;;;;;16.85;10.23;;;;;;;;;;4362930;32;71933;-64
2022/11/21 04:08:24;;;;;;;16.30;8.30;;;;;;;;;;4384214;32;66269;-63
2022/11/21 04:11:11;;;;;;;13.90;8.48;;;;;;;;;;4373186;32;67766;-63
2022/11/21 04:13:58;;;;;;;15.30;9.27;;;;;;;;;;4362597;32;60425;-63
2022/11/21 04:16:44;;;;;;;14.20;8.40;;;;;;;;;;4384227;32;70729;-63
2022/11/21 04:19:31;;;;;;;14.65;9.07;;;;;;;;;;4351984;32;68921;-63
2022/11/21 04:22:19;;;;;;;14.70;9.77;;;;;;;;;;4373129;32;67693;-64
2022/11/21 04:25:06;;;;;;;14.82;9.32;;;;;;;;;;4373623;32;59132;-64
2022/11/21 04:27:59;;;;;;;15.27;9.57;;;;;;;;;;4362323;32;71593;-62
2022/11/21 04:30:46;;;;;;;15.48;8.65;;;;;;;;;;4375639;32;70123;-64
2022/11/21 04:33:33;;;;;;;16.90;8.75;;;;;;;;;;4363735;32;67741;-64
2022/11/21 04:36:19;;;;;;;13.18;8.52;;;;;;;;;;4361985;32;70717;-63
2022/11/21 04:39:06;;;;;;;10.75;6.12;;;;;;;;;;4384586;32;64683;-61
2022/11/21 04:41:53;;;;;;;;;;;;;;;;;;4363570;32;68202;-63
2022/11/21 04:44:39;;;;;;;12.23;6.95;;;;;;;;;;4362300;32;60601;-64
2022/11/21 04:47:26;;;;;;;8.30;5.00;;;;;;;;;;4373260;32;70704;-64
2022/11/21 04:50:14;;;;;;;13.15;6.90;;;;;;;;;;4385581;32;66165;-64
2022/11/21 04:53:01;;;;;;;16.02;7.22;;;;;;;;;;4382449;32;67497;-64
2022/11/21 04:55:47;;;;;;;13.88;7.20;;;;;;;;;;4361085;32;61014;-62
2022/11/21 04:58:34;;;;;;;12.90;7.12;;;;;;;;;;4383678;32;70420;-63
2022/11/21 05:01:21;;;;;;;14.13;7.60;;;;;;;;;;4372140;32;69470;-63
2022/11/21 05:04:07;;;;;;;13.25;7.95;;;;;;;;;;4382739;32;66626;-64
2022/11/21 05:06:54;;;;;;;12.75;7.00;;;;;;;;;;4383761;32;71646;-62
2022/11/21 05:09:40;;;;;;;12.37;6.85;;;;;;;;;;4371852;32;66750;-64
2022/11/21 05:15:32;;;;;;;9.40;5.85;;;;;;;;;;4373799;32;67730;-64
2022/11/21 05:18:19;;;;;;;9.50;6.18;;;;;;;;;;4360590;32;72727;-64
2022/11/21 05:21:05;;;;;;;9.25;6.15;;;;;;;;;;4382491;32;66181;-63
2022/11/21 05:23:52;;;;;;;7.93;5.18;;;;;;;;;;4383732;32;67899;-63
2022/11/21 05:26:39;;;;;;;7.93;5.50;;;;;;;;;;4372055;32;60124;-63
2022/11/21 05:29:25;;;;;;;9.20;5.22;;;;;;;;;;4382259;32;70506;-64
2022/11/21 05:32:12;;;;;;;10.32;5.55;;;;;;;;;;4371736;32;69269;-65
2022/11/21 05:34:58;;;;;;;8.52;5.28;;;;;;;;;;4382311;32;66605;-63
2022/11/21 05:37:45;;;;;;;9.35;5.53;;;;;;;;;;4361501;32;59452;-63
2022/11/21 05:40:32;;;;;;;8.27;5.35;;;;;;;;;;4371423;32;70452;-62
2022/11/21 05:46:25;;;;;;;8.85;5.80;;;;;;;;;;4382431;32;68017;-63
2022/11/21 05:49:12;;;;;;;7.37;5.03;;;;;;;;;;4360527;32;69903;-64
2022/11/21 05:51:59;;;;;;;8.57;5.43;;;;;;;;;;4371475;32;65499;-64
2022/11/21 05:54:45;;;;;;;7.25;4.70;;;;;;;;;;4381541;32;69330;-63
2022/11/21 05:57:32;;;;;;;9.05;5.22;;;;;;;;;;4381956;32;60241;-64
2022/11/21 06:00:19;;;;;;;7.20;5.25;;;;;;;;;;4381895;32;70366;-63
2022/11/21 06:03:25;;;;;;;7.75;4.75;;;;;;;;;;4371480;32;64854;-64
2022/11/21 06:06:14;;;;;;;8.32;5.20;;;;;;;;;;4382162;32;67173;-64
2022/11/21 06:09:00;;;;;;;9.38;6.30;;;;;;;;;;4381137;32;57764;-63
2022/11/21 06:11:47;;;;;;;8.10;5.40;;;;;;;;;;4370572;32;71126;-65
2022/11/21 06:14:34;;;;;;;8.02;5.10;;;;;;;;;;4381087;32;69125;-64
2022/11/21 06:17:20;;;;;;;7.40;4.87;;;;;;;;;;4360332;32;68203;-62
2022/11/21 06:20:08;;;;;;;8.23;5.35;;;;;;;;;;4370355;32;72110;-63
2022/11/21 06:22:54;;;;;;;7.45;5.07;;;;;;;;;;4370544;32;66489;-62
2022/11/21 06:25:43;;;;;;;9.60;5.70;;;;;;;;;;4381655;32;69588;-64
2022/11/21 06:28:35;;;;;;;7.85;5.03;;;;;;;;;;4381700;32;67859;-63
2022/11/21 06:31:24;;;;;;;7.78;5.12;;;;;;;;;;4381618;32;71899;-67
2022/11/21 06:34:10;;;;;;;8.52;5.37;;;;;;;;;;4370575;32;66375;-63
2022/11/21 06:36:57;;;;;;;9.23;5.72;;;;;;;;;;4370574;32;68102;-62
2022/11/21 06:39:44;;;;;;;8.20;5.10;;;;;;;;;;4370326;32;60520;-63
2022/11/21 06:42:32;;;;;;;8.88;5.22;;;;;;;;;;4370839;32;70528;-64
2022/11/21 06:45:19;;;;;;;8.48;5.32;;;;;;;;;;4370764;32;69486;-64
2022/11/21 06:48:06;;;;;;;9.07;5.97;;;;;;;;;;4360101;32;66828;-64
2022/11/21 06:50:52;;;;;;;;;;;;;;;;;;4371569;32;59947;-63
2022/11/21 06:53:39;;;;;;;8.93;6.05;;;;;;;;;;4380881;32;70521;-65
2022/11/21 06:56:27;;;;;;;12.18;6.10;;;;;;;;;;4370098;32;68743;-64
2022/11/21 06:59:14;;;;;;;7.97;5.60;;;;;;;;;;4359789;32;68032;-64
2022/11/21 07:02:01;;;;;;;;;;;;;;;;;;4360269;32;70802;-64
2022/11/21 07:04:47;;;;;;;9.10;5.07;;;;;;;;;;4382706;32;66170;-64
2022/11/21 07:07:34;;;;;;;12.35;5.70;;;;;;;;;;4370876;32;67157;-64
2022/11/21 07:10:21;;;;;;;9.77;6.10;;;;;;;;;;4370923;32;58795;-63
2022/11/21 07:13:21;;;;;;;11.35;6.32;;;;;;;;;;4359810;32;69783;-64
2022/11/21 07:16:13;;;;;;;11.18;6.37;;;;;;;;;;4360240;32;67041;-64
2022/11/21 07:18:59;;;;;;;8.55;6.30;;;;;;;;;;4381127;32;66822;-64
2022/11/21 07:21:46;;;;;;;14.23;6.53;;;;;;;;;;4362089;32;59872;-63
2022/11/21 07:24:32;;;;;;;8.98;6.10;;;;;;;;;;4372930;32;70609;-63
2022/11/21 07:27:19;;;;;;;;;;;;;;;;;;4385278;32;69511;-63
2022/11/21 07:30:06;;;;;;;11.05;6.20;;;;;;;;;;4383877;32;67019;-63
2022/11/21 07:33:00;;;;;;;8.75;5.30;;;;;;;;;;4362371;32;70963;-63
2022/11/21 07:35:47;;;;;;;9.65;4.90;;;;;;;;;;4383729;32;65966;-63
2022/11/21 07:38:33;;;;;;;8.60;5.68;;;;;;;;;;4373219;32;68123;-64
2022/11/21 07:41:20;;;;;;;;;;;;;;;;;;4372865;32;68076;-64
2022/11/21 07:44:07;;;;;;;12.80;7.60;;;;;;;;;;4382749;32;72785;-64
2022/11/21 07:46:56;;;;;;;9.52;6.20;;;;;;;;;;4361952;32;66603;-63
2022/11/21 07:49:43;;;;;;;10.23;6.10;;;;;;;;;;4384468;32;68127;-63
2022/11/21 07:52:29;;;;;;;12.00;6.40;;;;;;;;;;4372674;32;60190;-63
2022/11/21 07:55:16;;;;;;;8.13;5.10;;;;;;;;;;4384327;32;70831;-64
2022/11/21 07:58:07;;;;;;;;;;;;;;;;;;4361826;32;69270;-64
2022/11/21 08:00:53;;;;;;;5.82;4.30;;;;;;;;;;4372429;32;67839;-64
2022/11/21 08:03:40;;;;;;;9.30;5.68;;;;;;;;;;4383490;32;70419;-62
2022/11/21 08:06:27;;;;;;;12.57;6.97;;;;;;;;;;4361994;32;69503;-63
2022/11/21 08:09:13;;;;;;;9.32;5.90;;;;;;;;;;4384210;32;69538;-63
2022/11/21 08:12:00;;;;;;;11.73;7.10;;;;;;;;;;4383064;32;67505;-63
2022/11/21 08:14:46;;;;;;;10.68;6.35;;;;;;;;;;4382688;32;71735;-64
2022/11/21 08:17:33;;;;;;;10.52;6.95;;;;;;;;;;4372364;32;66314;-64
2022/11/21 08:20:20;;;;;;;12.98;6.57;;;;;;;;;;4372046;32;66900;-65
2022/11/21 08:23:07;;;;;;;10.13;6.50;;;;;;;;;;4371789;32;60679;-62
2022/11/21 08:25:53;;;;;;;11.48;6.80;;;;;;;;;;4382595;32;69520;-64
2022/11/21 08:28:40;;;;;;;12.43;7.75;;;;;;;;;;4381996;32;69619;-64
2022/11/21 08:31:27;;;;;;;11.52;6.93;;;;;;;;;;4371187;32;68959;-63
2022/11/21 08:34:13;;;;;;;10.43;6.03;;;;;;;;;;4372259;32;59530;-64
2022/11/21 08:37:01;;;;;;;9.32;6.12;;;;;;;;;;4371389;32;71337;-63
2022/11/21 08:39:47;;;;;;;12.48;7.32;;;;;;;;;;4350458;32;68052;-64
2022/11/21 08:42:34;;;;;;;11.60;7.32;;;;;;;;;;4382186;32;67208;-65
2022/11/21 08:45:20;;;;;;;9.80;6.30;;;;;;;;;;4382698;32;72109;-63
2022/11/21 08:48:11;;;;;;;11.25;6.90;;;;;;;;;;4372245;32;66334;-64
2022/11/21 08:50:57;;;;;;;11.48;6.28;;;;;;;;;;4382721;32;67116;-64
2022/11/21 08:53:44;;;;;;;8.88;4.72;;;;;;;;;;4372223;32;66907;-64
2022/11/21 08:56:31;;;;;;;7.00;5.07;;;;;;;;;;4371986;32;70810;-63
2022/11/21 08:59:18;;;;;;;12.45;5.50;;;;;;;;;;4371565;32;65863;-63
2022/11/21 09:02:05;;;;;;;10.85;6.10;;;;;;;;;;4371344;32;67430;-62
2022/11/21 09:04:52;;;;;;;14.73;7.22;;;;;;;;;;4372282;32;60465;-62
2022/11/21 09:07:40;;;;;;;13.48;8.27;;;;;;;;;;4360775;32;71385;-62
2022/11/21 09:10:28;;;;;;;13.27;7.47;;;;;;;;;;4361051;32;70429;-64
2022/11/21 09:13:14;;;;;;;13.18;6.72;;;;;;;;;;4372038;32;66687;-63
2022/11/21 09:19:06;;;;;;;13.23;7.03;;;;;;;;;;4372987;32;71731;-62
2022/11/21 09:21:54;;;;;;;9.52;5.93;;;;;;;;;;4371676;32;69161;-62
2022/11/21 09:24:40;;;;;;;;;;;;;;;;;;4372927;32;67678;-63
2022/11/21 09:27:27;;;;;;;12.82;7.35;;;;;;;;;;4381835;32;72894;-65
2022/11/21 09:30:15;;;;;;;11.02;6.30;;;;;;;;;;4371664;32;66007;-64
2022/11/21 09:33:06;;;;;;;11.70;6.10;;;;;;;;;;4371762;32;68064;-63
2022/11/21 09:35:52;;;;;;;12.00;7.10;;;;;;;;;;4382602;32;60270;-63
2022/11/21 09:38:40;;;;;;;14.48;8.15;;;;;;;;;;4382147;32;70704;-63
2022/11/21 09:41:51;;;;;;;13.95;6.85;;;;;;;;;;4371610;32;69693;-64
2022/11/21 09:44:50;;;;;;;11.63;7.47;;;;;;;;;;4381632;32;68190;-63
2022/11/21 09:47:48;;;;;;;13.35;7.32;;;;;;;;;;4382336;32;59276;-64
2022/11/21 09:50:46;;;;;;;11.90;7.22;;;;;;;;;;4360102;32;70561;-61
2022/11/21 09:53:58;;;;;;;12.48;6.82;;;;;;;;;;4360736;32;69355;-62
2022/11/21 09:56:44;;;;;;;12.88;7.07;;;;;;;;;;4383309;32;66754;-64
2022/11/21 09:59:36;;;;;;;11.55;7.68;;;;;;;;;;4370927;32;71542;-64
2022/11/21 10:02:23;;;;;;;13.27;5.68;;;;;;;;;;4382941;32;65883;-64
2022/11/21 10:05:14;;;;;;;10.80;6.60;;;;;;;;;;4383692;32;67097;-63
2022/11/21 10:08:06;;;;;;;10.60;5.75;;;;;;;;;;4361078;32;60229;-64
2022/11/21 10:10:58;;;;;;;9.40;6.20;;;;;;;;;;4371312;32;70769;-63
2022/11/21 10:14:32;;;;;;;11.98;6.57;;;;;;;;;;4370605;32;67167;-64
2022/11/21 10:17:32;;;;;;;12.50;6.03;;;;;;;;;;4337069;32;67388;-66
2022/11/21 10:20:27;;;;;;;10.45;5.78;;;;;;;;;;4370489;32;61028;-63
2022/11/21 10:23:36;;;;;;;8.43;5.35;;;;;;;;;;4381525;32;69734;-65
2022/11/21 10:26:46;;;;;;;13.38;6.22;;;;;;;;;;4381507;32;68438;-61
2022/11/21 10:29:53;;;;;;;14.18;6.80;;;;;;;;;;4381535;32;68091;-62
2022/11/21 10:32:45;;;;;;;11.48;6.53;;;;;;;;;;4360368;32;71667;-61
2022/11/21 10:35:38;;;;;;;8.20;4.60;;;;;;;;;;4381759;32;64853;-62
2022/11/21 10:38:27;;;;;;;7.82;4.68;;;;;;;;;;4370369;32;69922;-62
2022/11/21 10:41:20;;;;;;;8.00;4.40;;;;;;;;;;4381524;32;67553;-64
2022/11/21 10:47:26;;;;;;;8.30;5.00;;;;;;;;;;4381455;32;65962;-61
2022/11/21 10:50:28;;;;;;;7.82;4.60;;;;;;;;;;4381518;32;67782;-64
2022/11/21 10:56:25;;;;;;;10.68;6.00;;;;;;;;;;4381747;32;69855;-63
2022/11/21 10:59:28;;;;;;;9.52;5.80;;;;;;;;;;4370278;32;68411;-62
2022/11/21 11:02:15;;;;;;;9.88;5.60;;;;;;;;;;4370526;32;66552;-64
2022/11/21 11:05:23;;;;;;;10.52;6.03;;;;;;;;;;4381705;32;59177;-64
2022/11/21 11:08:13;;;;;;;;;;;;;;;;;;4370966;32;70607;-62
2022/11/21 11:11:14;;;;;;;9.52;5.95;;;;;;;;;;4370023;32;70000;-63
2022/11/21 11:14:02;;;;;;;9.85;5.30;;;;;;;;;;4370528;32;68765;-63
2022/11/21 11:16:49;;;;;;;13.62;6.07;;;;;;;;;;4370464;32;71601;-62
2022/11/21 11:19:35;;;;;;;10.23;6.22;;;;;;;;;;4360051;32;65691;-63
2022/11/21 11:22:26;;;;;;;;;;;;;;;;;;4360312;32;67814;-61
2022/11/21 11:25:12;;;;;;;28.35;12.73;;;;;;;;;;4360308;32;59820;-64
2022/11/21 11:28:05;;;;;;;13.20;7.03;;;;;;;;;;4359294;32;73053;-63
2022/11/21 11:30:53;;;;;;;11.23;6.65;;;;;;;;;;4370420;32;64910;-64
2022/11/21 11:33:48;;;;;;;11.07;6.90;;;;;;;;;;4380780;32;67147;-63
2022/11/21 11:36:43;;;;;;;11.77;6.53;;;;;;;;;;4381230;32;59058;-63
2022/11/21 11:39:45;;;;;;;11.40;5.78;;;;;;;;;;4370839;32;69280;-63
2022/11/21 11:49:22;;;;;;;12.05;6.90;;;;;;;;;;4370899;32;72065;-63
2022/11/21 11:52:11;;;;;;;12.70;7.12;;;;;;;;;;4370961;32;65919;-61
2022/11/21 11:55:07;;;;;;;14.13;7.35;;;;;;;;;;4358766;32;69172;-63
2022/11/21 11:57:55;;;;;;;11.12;6.82;;;;;;;;;;4375451;32;68153;-64
2022/11/21 12:00:59;;;;;;;14.40;7.78;;;;;;;;;;4379890;32;71946;-67
2022/11/21 12:03:50;;;;;;;11.98;7.35;;;;;;;;;;4364692;32;66751;-66
2022/11/21 12:07:10;;;;;;;12.70;6.95;;;;;;;;;;4374510;32;68170;-66
2022/11/21 12:13:14;;;;;;;11.20;6.70;;;;;;;;;;3815944;37;45892;-65
2022/11/21 12:16:04;;;;;;;12.30;7.15;;;;;;;;;;4368587;32;59289;-64
2022/11/21 12:19:00;;;;;;;11.25;6.85;;;;;;;;;;4376230;32;70515;-64
2022/11/21 12:21:46;;;;;;;13.82;7.40;;;;;;;;;;4377836;32;68632;-64
2022/11/21 12:24:34;;;;;;;12.95;7.15;;;;;;;;;;4371020;32;67739;-66
2022/11/21 12:27:26;;;;;;;11.10;6.60;;;;;;;;;;4385858;32;72025;-65
2022/11/21 12:30:21;;;;;;;14.87;8.93;;;;;;;;;;4378180;32;66810;-67
2022/11/21 12:33:21;;;;;;;15.23;8.50;;;;;;;;;;4378411;32;66299;-66
2022/11/21 12:36:35;;;;;;;14.07;6.40;;;;;;;;;;4382402;32;60029;-65
2022/11/21 12:39:46;;;;;;;14.82;8.88;;;;;;;;;;4363939;32;71896;-64
2022/11/21 12:42:48;;;;;;;17.02;9.07;;;;;;;;;;4382827;32;64805;-67
2022/11/21 12:45:50;;;;;;;15.88;9.90;;;;;;;;;;4379799;32;68082;-66
2022/11/21 12:55:22;;;;;;;20.17;10.15;;;;;;;;;;4375478;32;69376;-65
2022/11/21 12:58:31;;;;;;;16.77;9.63;;;;;;;;;;4386925;32;67459;-63
2022/11/21 13:01:34;;;;;;;15.80;9.73;;;;;;;;;;4383982;32;71593;-63
2022/11/21 13:04:28;;;;;;;17.33;9.35;;;;;;;;;;4380117;32;65044;-65
2022/11/21 13:07:15;;;;;;;20.45;9.05;;;;;;;;;;4370217;32;70071;-66
2022/11/21 13:10:03;;;;;;;16.85;8.43;;;;;;;;;;4385333;32;67606;-65
2022/11/21 13:13:16;;;;;;;19.02;9.43;;;;;;;;;;4360549;32;71877;-65
2022/11/21 13:16:15;;;;;;;17.02;9.23;;;;;;;;;;4382154;32;66040;-64
2022/11/21 13:22:03;;;;;;;20.08;10.30;;;;;;;;;;3830370;36;44052;-64
2022/11/21 13:24:55;;;;;;;25.27;11.52;;;;;;;;;;4381320;32;60160;-66
2022/11/21 13:27:43;;;;;;;23.35;11.43;;;;;;;;;;4388303;32;71239;-66
2022/11/21 13:30:30;;;;;;;18.75;11.55;;;;;;;;;;4389238;32;69392;-64
2022/11/21 13:33:44;;;;;;;23.30;12.50;;;;;;;;;;4398066;32;68613;-66
2022/11/21 13:36:31;;;;;;;22.95;12.10;;;;;;;;;;4378733;32;72396;-65
2022/11/21 13:39:17;;;;;;;21.13;10.90;;;;;;;;;;4387650;32;66037;-64
2022/11/21 13:45:39;;;;;;;15.40;8.85;;;;;;;;;;4378502;32;59473;-64
2022/11/21 13:49:04;;;;;;;14.98;8.90;;;;;;;;;;4382181;32;72369;-64
2022/11/21 13:51:52;;;;;;;13.65;8.30;;;;;;;;;;4339671;32;67188;-65
2022/11/21 13:54:45;;;;;;;13.65;8.43;;;;;;;;;;4388083;32;66740;-65
2022/11/21 13:57:44;;;;;;;11.05;7.47;;;;;;;;;;4400673;32;60307;-64
2022/11/21 14:00:41;;;;;;;15.63;8.15;;;;;;;;;;4375874;32;67824;-64
2022/11/21 14:03:53;;;;;;;15.68;8.82;;;;;;;;;;4379207;32;69185;-63
2022/11/21 14:06:43;;;;;;;13.32;7.95;;;;;;;;;;4369568;32;68807;-64
2022/11/21 14:09:37;;;;;;;15.05;7.55;;;;;;;;;;4366335;32;71687;-64
2022/11/21 14:12:34;;;;;;;15.32;9.27;;;;;;;;;;4375515;32;63996;-64
2022/11/21 14:15:32;;;;;;;17.40;8.48;;;;;;;;;;4366382;32;67967;-64
2022/11/21 14:18:21;;;;;;;;;;;;;;;;;;4376005;32;67616;-65
2022/11/21 14:21:21;;;;;;;15.35;8.13;;;;;;;;;;4354208;32;72535;-64
2022/11/21 14:24:18;;;;;;;16.45;7.97;;;;;;;;;;4353757;32;63569;-64
2022/11/21 14:27:05;;;;;;;17.23;8.27;;;;;;;;;;4375252;32;66597;-64
2022/11/21 14:29:52;;;;;;;12.05;7.43;;;;;;;;;;4350199;32;60098;-66
2022/11/21 14:32:39;;;;;;;19.37;7.22;;;;;;;;;;4356755;32;69335;-65
2022/11/21 14:35:25;;;;;;;13.02;6.87;;;;;;;;;;4360937;32;69279;-65
2022/11/21 14:38:13;;;;;;;18.70;7.50;;;;;;;;;;4365213;32;67440;-65
2022/11/21 14:41:26;;;;;;;13.45;7.25;;;;;;;;;;4376013;32;58989;-65
2022/11/21 14:44:15;;;;;;;13.38;6.93;;;;;;;;;;4358781;32;69761;-66
2022/11/21 14:47:16;;;;;;;13.18;6.82;;;;;;;;;;4374416;32;66752;-64
2022/11/21 14:50:04;;;;;;;12.10;7.28;;;;;;;;;;4369270;32;67465;-65
2022/11/21 14:52:56;;;;;;;11.85;7.25;;;;;;;;;;4333243;32;71841;-63
2022/11/21 14:55:42;;;;;;;12.23;7.60;;;;;;;;;;4352194;32;65570;-64
2022/11/21 14:58:29;;;;;;;13.82;6.97;;;;;;;;;;4354870;32;67368;-63
2022/11/21 15:01:28;;;;;;;15.10;8.20;;;;;;;;;;4345044;32;59313;-63
2022/11/21 15:04:15;;;;;;;13.10;7.28;;;;;;;;;;4344140;32;71701;-63
2022/11/21 15:07:03;;;;;;;16.12;7.60;;;;;;;;;;4356321;32;64837;-62
2022/11/21 15:09:50;;;;;;;11.65;7.10;;;;;;;;;;4336161;32;66933;-63
2022/11/21 15:12:46;;;;;;;12.85;7.43;;;;;;;;;;4344138;32;59160;-63
2022/11/21 15:15:46;;;;;;;12.13;7.43;;;;;;;;;;4357062;32;70197;-63
2022/11/21 15:18:33;;;;;;;10.27;6.90;;;;;;;;;;4357057;32;69513;-61
2022/11/21 15:21:19;;;;;;;11.07;6.53;;;;;;;;;;4343315;32;66563;-63
2022/11/21 15:24:28;;;;;;;;;;;;;;;;;;4343774;32;71294;-62
2022/11/21 15:27:26;;;;;;;9.77;5.15;;;;;;;;;;4346721;32;65255;-63
2022/11/21 15:30:13;;;;;;;8.27;4.80;;;;;;;;;;4357266;32;66335;-63
2022/11/21 15:33:03;;;;;;;8.03;4.80;;;;;;;;;;4368830;32;67658;-63
2022/11/21 15:35:54;;;;;;;9.75;6.00;;;;;;;;;;4356810;32;71004;-62
2022/11/21 15:38:46;;;;;;;9.65;6.12;;;;;;;;;;4356986;32;66022;-63
2022/11/21 15:41:34;;;;;;;9.40;4.85;;;;;;;;;;4356796;32;67284;-62
2022/11/21 15:44:22;;;;;;;10.23;5.60;;;;;;;;;;4345724;32;58794;-62
2022/11/21 15:47:09;;;;;;;9.93;5.93;;;;;;;;;;4356864;32;70762;-62
2022/11/21 15:49:56;;;;;;;10.10;5.72;;;;;;;;;;4356456;32;69551;-62
2022/11/21 15:52:50;;;;;;;8.93;6.07;;;;;;;;;;4346164;32;67789;-62
2022/11/21 15:55:36;;;;;;;8.15;5.18;;;;;;;;;;4343477;32;57969;-63
2022/11/21 15:58:23;;;;;;;7.60;5.20;;;;;;;;;;4345928;32;70513;-63
2022/11/21 16:01:18;;;;;;;8.88;5.45;;;;;;;;;;4368401;32;69627;-63
2022/11/21 16:04:07;;;;;;;7.95;5.05;;;;;;;;;;4335753;32;67800;-62
2022/11/21 16:06:54;;;;;;;11.63;5.93;;;;;;;;;;4335716;32;70623;-62
2022/11/21 16:09:42;;;;;;;8.27;5.43;;;;;;;;;;4356770;32;66004;-63
2022/11/21 16:12:28;;;;;;;9.85;5.43;;;;;;;;;;4343824;32;67077;-62
2022/11/21 16:15:14;;;;;;;10.52;5.90;;;;;;;;;;4356787;32;60122;-62
2022/11/21 16:18:01;;;;;;;11.23;5.60;;;;;;;;;;4345727;32;70282;-63
2022/11/21 16:20:48;;;;;;;9.25;5.53;;;;;;;;;;4356090;32;65543;-62
2022/11/21 16:23:35;;;;;;;9.82;5.85;;;;;;;;;;4356417;32;66835;-63
2022/11/21 16:26:26;;;;;;;9.52;6.12;;;;;;;;;;4346259;32;60069;-63
2022/11/21 16:29:13;;;;;;;12.37;6.35;;;;;;;;;;4346246;32;70658;-62
2022/11/21 16:32:00;;;;;;;9.88;5.75;;;;;;;;;;4367985;32;69688;-62
2022/11/21 16:34:46;;;;;;;8.55;5.97;;;;;;;;;;4368149;32;67947;-62
2022/11/21 16:37:33;;;;;;;;;;;;;;;;;;4356584;32;71954;-63
2022/11/21 16:40:19;;;;;;;10.45;5.35;;;;;;;;;;4345962;32;66045;-63
2022/11/21 16:43:11;;;;;;;9.90;5.95;;;;;;;;;;4356351;32;66685;-62
2022/11/21 16:46:07;;;;;;;10.50;6.10;;;;;;;;;;4356068;32;67785;-62
2022/11/21 16:49:01;;;;;;;12.70;6.80;;;;;;;;;;4356029;32;70773;-63
2022/11/21 16:51:47;;;;;;;10.57;6.43;;;;;;;;;;4356049;32;66084;-63
2022/11/21 16:54:34;;;;;;;11.25;6.55;;;;;;;;;;4345242;32;66851;-63
2022/11/21 16:57:21;;;;;;;10.48;5.90;;;;;;;;;;4345742;32;60068;-63
2022/11/21 17:00:10;;;;;;;12.68;6.40;;;;;;;;;;4355825;32;69670;-63
2022/11/21 17:02:57;;;;;;;11.32;6.53;;;;;;;;;;4355974;32;68268;-62
2022/11/21 17:05:54;;;;;;;9.88;6.15;;;;;;;;;;4356129;32;67920;-62
2022/11/21 17:08:41;;;;;;;12.48;5.90;;;;;;;;;;4356178;32;71878;-62
2022/11/21 17:11:31;;;;;;;12.45;5.80;;;;;;;;;;4345582;32;70602;-63
2022/11/21 17:14:18;;;;;;;10.25;6.57;;;;;;;;;;4345441;32;68245;-62
2022/11/21 17:17:04;;;;;;;10.68;6.30;;;;;;;;;;4332253;32;67744;-63
2022/11/21 17:19:53;;;;;;;11.40;6.90;;;;;;;;;;4345124;32;72314;-63
2022/11/21 17:22:40;;;;;;;12.05;6.18;;;;;;;;;;4367410;32;64636;-63
2022/11/21 17:25:26;;;;;;;12.18;6.47;;;;;;;;;;4355823;32;67456;-63
2022/11/21 17:28:13;;;;;;;13.15;6.82;;;;;;;;;;4345495;32;60249;-63